sensor_id;sensor_type;location;lat;lon;timestamp;pressure;altitude;pressure_sealevel;temperature;humidity
50380;BME280;37474;59.468;18.040;2023-08-07T06:33:46;99436.34;;;21.78;100.00
50380;BME280;37474;59.468;18.040;2023-08-07T06:36:15;99430.06;;;21.94;100.00
50380;BME280;37474;59.468;18.040;2023-08-07T06:38:44;99444.88;;;21.80;100.00
50380;BME280;37474;59.468;18.040;2023-08-07T06:41:13;99435.16;;;22.10;100.00
50380;BME280;37474;59.468;18.040;2023-08-07T06:43:41;99412.69;;;22.35;100.00
50380;BME280;37474;59.468;18.040;2023-08-07T06:46:10;99417.97;;;22.35;100.00
50380;BME280;37474;59.468;18.040;2023-08-07T06:48:38;99413.16;;;22.39;100.00
50380;BME280;37474;59.468;18.040;2023-08-07T06:51:09;99431.88;;;21.93;100.00
50380;BME280;37474;59.468;18.040;2023-08-07T06:53:37;99435.06;;;21.74;100.00
50380;BME280;37474;59.468;18.040;2023-08-07T06:56:05;99456.25;;;21.66;100.00
50380;BME280;37474;59.468;18.040;2023-08-07T06:58:34;99442.69;;;21.39;100.00
50380;BME280;37474;59.468;18.040;2023-08-07T07:01:03;99428.97;;;21.44;100.00
50380;BME280;37474;59.468;18.040;2023-08-07T07:03:32;99426.22;;;21.96;100.00
50380;BME280;37474;59.468;18.040;2023-08-07T07:06:01;99425.38;;;22.25;100.00
50380;BME280;37474;59.468;18.040;2023-08-07T07:08:31;99426.13;;;21.90;100.00
50380;BME280;37474;59.468;18.040;2023-08-07T07:10:59;99421.16;;;22.31;100.00
50380;BME280;37474;59.468;18.040;2023-08-07T07:13:28;99425.34;;;22.40;100.00
50380;BME280;37474;59.468;18.040;2023-08-07T07:15:56;99415.94;;;22.37;100.00
50380;BME280;37474;59.468;18.040;2023-08-07T07:18:26;99404.94;;;21.68;100.00
50380;BME280;37474;59.468;18.040;2023-08-07T07:20:58;99402.31;;;21.83;100.00
50380;BME280;37474;59.468;18.040;2023-08-07T07:23:28;99423.59;;;22.11;100.00
50380;BME280;37474;59.468;18.040;2023-08-07T07:25:57;99413.31;;;22.37;100.00
50380;BME280;37474;59.468;18.040;2023-08-07T07:28:26;99415.56;;;22.19;100.00
50380;BME280;37474;59.468;18.040;2023-08-07T07:30:54;99418.19;;;22.19;100.00
50380;BME280;37474;59.468;18.040;2023-08-07T07:33:23;99423.88;;;22.37;100.00
50380;BME280;37474;59.468;18.040;2023-08-07T07:35:52;99414.41;;;22.64;100.00
50380;BME280;37474;59.468;18.040;2023-08-07T07:38:20;99416.38;;;22.56;100.00
50380;BME280;37474;59.468;18.040;2023-08-07T07:40:49;99411.63;;;22.30;100.00
50380;BME280;37474;59.468;18.040;2023-08-07T07:43:19;99413.25;;;22.31;100.00
50380;BME280;37474;59.468;18.040;2023-08-07T07:45:48;99416.38;;;22.05;100.00
50380;BME280;37474;59.468;18.040;2023-08-07T07:48:17;99425.28;;;22.04;100.00
50380;BME280;37474;59.468;18.040;2023-08-07T07:50:46;99415.94;;;22.16;100.00
50380;BME280;37474;59.468;18.040;2023-08-07T07:53:14;99409.91;;;22.07;100.00
50380;BME280;37474;59.468;18.040;2023-08-07T07:55:47;99422.91;;;22.09;100.00
50380;BME280;37474;59.468;18.040;2023-08-07T07:58:16;99417.56;;;21.87;100.00
50380;BME280;37474;59.468;18.040;2023-08-07T08:00:46;99430.44;;;21.61;100.00
50380;BME280;37474;59.468;18.040;2023-08-07T08:03:14;99415.22;;;21.63;100.00
50380;BME280;37474;59.468;18.040;2023-08-07T08:05:43;99422.69;;;21.59;100.00
50380;BME280;37474;59.468;18.040;2023-08-07T08:08:11;99424.59;;;21.80;100.00
50380;BME280;37474;59.468;18.040;2023-08-07T08:10:40;99415.94;;;22.16;100.00
50380;BME280;37474;59.468;18.040;2023-08-07T08:13:09;99403.56;;;22.59;100.00
50380;BME280;37474;59.468;18.040;2023-08-07T08:15:38;99388.16;;;23.06;100.00
50380;BME280;37474;59.468;18.040;2023-08-07T08:18:07;99396.09;;;23.06;100.00
50380;BME280;37474;59.468;18.040;2023-08-07T08:20:36;99399.91;;;23.31;100.00
50380;BME280;37474;59.468;18.040;2023-08-07T08:23:05;99398.56;;;23.42;100.00
50380;BME280;37474;59.468;18.040;2023-08-07T08:25:34;99397.19;;;23.53;100.00
50380;BME280;37474;59.468;18.040;2023-08-07T08:28:02;99401.84;;;23.79;99.85
50380;BME280;37474;59.468;18.040;2023-08-07T08:30:31;99390.69;;;23.90;98.68
50380;BME280;37474;59.468;18.040;2023-08-07T08:33:00;99393.00;;;23.30;100.00
50380;BME280;37474;59.468;18.040;2023-08-07T08:35:30;99396.41;;;23.59;100.00
50380;BME280;37474;59.468;18.040;2023-08-07T08:37:59;99393.41;;;23.62;100.00
50380;BME280;37474;59.468;18.040;2023-08-07T08:40:28;99388.09;;;23.62;100.00
50380;BME280;37474;59.468;18.040;2023-08-07T08:43:00;99402.63;;;23.38;99.96
50380;BME280;37474;59.468;18.040;2023-08-07T08:45:30;99394.78;;;22.95;100.00
50380;BME280;37474;59.468;18.040;2023-08-07T08:48:01;99387.56;;;23.38;100.00
50380;BME280;37474;59.468;18.040;2023-08-07T08:50:32;99376.31;;;23.64;100.00
50380;BME280;37474;59.468;18.040;2023-08-07T08:53:02;99371.41;;;23.61;98.75
50380;BME280;37474;59.468;18.040;2023-08-07T08:55:31;99377.00;;;23.73;99.82
50380;BME280;37474;59.468;18.040;2023-08-07T08:58:00;99357.25;;;23.76;98.93
50380;BME280;37474;59.468;18.040;2023-08-07T09:00:29;99363.00;;;23.86;96.64
50380;BME280;37474;59.468;18.040;2023-08-07T09:02:58;99363.91;;;24.19;94.95
50380;BME280;37474;59.468;18.040;2023-08-07T09:05:28;99368.41;;;24.26;95.54
50380;BME280;37474;59.468;18.040;2023-08-07T09:07:58;99367.25;;;24.41;94.81
50380;BME280;37474;59.468;18.040;2023-08-07T09:10:29;99357.28;;;24.43;94.45
50380;BME280;37474;59.468;18.040;2023-08-07T09:12:59;99341.38;;;24.70;94.25
50380;BME280;37474;59.468;18.040;2023-08-07T09:15:32;99344.84;;;24.51;91.89
50380;BME280;37474;59.468;18.040;2023-08-07T09:18:01;99355.78;;;24.34;95.76
50380;BME280;37474;59.468;18.040;2023-08-07T09:20:35;99381.25;;;24.29;92.38
50380;BME280;37474;59.468;18.040;2023-08-07T09:23:06;99384.28;;;24.19;95.80
50380;BME280;37474;59.468;18.040;2023-08-07T09:25:34;99390.59;;;24.11;94.09
50380;BME280;37474;59.468;18.040;2023-08-07T09:28:04;99389.56;;;24.12;95.07
50380;BME280;37474;59.468;18.040;2023-08-07T09:30:34;99381.38;;;24.01;95.45
50380;BME280;37474;59.468;18.040;2023-08-07T09:33:04;99385.88;;;24.07;94.36
50380;BME280;37474;59.468;18.040;2023-08-07T09:35:33;99378.88;;;23.86;93.74
50380;BME280;37474;59.468;18.040;2023-08-07T09:38:01;99378.50;;;23.89;94.93
50380;BME280;37474;59.468;18.040;2023-08-07T09:40:31;99381.81;;;24.04;94.88
50380;BME280;37474;59.468;18.040;2023-08-07T09:43:01;99375.53;;;24.32;92.15
50380;BME280;37474;59.468;18.040;2023-08-07T09:45:29;99381.03;;;24.30;92.28
50380;BME280;37474;59.468;18.040;2023-08-07T09:47:59;99368.38;;;24.19;91.85
50380;BME280;37474;59.468;18.040;2023-08-07T09:50:29;99358.25;;;24.42;92.99
50380;BME280;37474;59.468;18.040;2023-08-07T09:52:59;99361.56;;;24.51;91.07
50380;BME280;37474;59.468;18.040;2023-08-07T09:55:28;99355.03;;;24.54;91.10
50380;BME280;37474;59.468;18.040;2023-08-07T09:57:59;99348.13;;;24.72;90.41
50380;BME280;37474;59.468;18.040;2023-08-07T10:00:33;99347.88;;;24.47;89.45
50380;BME280;37474;59.468;18.040;2023-08-07T10:03:02;99343.41;;;24.61;88.26
50380;BME280;37474;59.468;18.040;2023-08-07T10:05:32;99352.16;;;24.42;89.68
50380;BME280;37474;59.468;18.040;2023-08-07T10:08:01;99349.69;;;24.27;91.07
50380;BME280;37474;59.468;18.040;2023-08-07T10:10:32;99350.06;;;24.31;90.79
50380;BME280;37474;59.468;18.040;2023-08-07T10:13:03;99356.53;;;24.08;91.69
50380;BME280;37474;59.468;18.040;2023-08-07T10:15:32;99353.88;;;23.95;92.86
50380;BME280;37474;59.468;18.040;2023-08-07T10:18:01;99353.22;;;23.86;94.02
50380;BME280;37474;59.468;18.040;2023-08-07T10:20:29;99353.53;;;24.18;92.94
50380;BME280;37474;59.468;18.040;2023-08-07T10:23:04;99347.66;;;24.36;89.81
50380;BME280;37474;59.468;18.040;2023-08-07T10:25:37;99338.09;;;24.35;89.98
50380;BME280;37474;59.468;18.040;2023-08-07T10:28:10;99332.19;;;24.39;89.72
50380;BME280;37474;59.468;18.040;2023-08-07T10:30:40;99344.59;;;24.32;87.55
50380;BME280;37474;59.468;18.040;2023-08-07T10:33:10;99343.28;;;24.02;90.60
50380;BME280;37474;59.468;18.040;2023-08-07T10:35:44;99349.84;;;24.19;89.25
50380;BME280;37474;59.468;18.040;2023-08-07T10:38:13;99368.31;;;23.92;89.34
50380;BME280;37474;59.468;18.040;2023-08-07T10:41:01;99371.13;;;23.78;91.36
50380;BME280;37474;59.468;18.040;2023-08-07T10:43:36;99369.03;;;23.66;91.58
50380;BME280;37474;59.468;18.040;2023-08-07T10:46:05;99366.91;;;23.55;91.74
50380;BME280;37474;59.468;18.040;2023-08-07T10:48:41;99370.09;;;23.44;92.38
50380;BME280;37474;59.468;18.040;2023-08-07T10:51:13;99374.34;;;23.38;92.64
50380;BME280;37474;59.468;18.040;2023-08-07T10:53:43;99365.13;;;23.28;93.76
50380;BME280;37474;59.468;18.040;2023-08-07T10:56:16;99358.53;;;23.52;92.88
50380;BME280;37474;59.468;18.040;2023-08-07T10:58:50;99353.97;;;23.67;91.41
50380;BME280;37474;59.468;18.040;2023-08-07T11:01:28;99353.38;;;23.72;91.39
50380;BME280;37474;59.468;18.040;2023-08-07T11:04:06;99353.59;;;23.77;91.26
50380;BME280;37474;59.468;18.040;2023-08-07T11:06:36;99354.00;;;23.80;91.53
50380;BME280;37474;59.468;18.040;2023-08-07T11:09:06;99358.16;;;24.03;90.43
50380;BME280;37474;59.468;18.040;2023-08-07T11:11:37;99348.09;;;24.39;88.25
50380;BME280;37474;59.468;18.040;2023-08-07T11:14:10;99354.34;;;24.18;88.80
50380;BME280;37474;59.468;18.040;2023-08-07T11:16:40;99344.53;;;24.06;89.67
50380;BME280;37474;59.468;18.040;2023-08-07T11:19:09;99352.06;;;24.09;90.50
50380;BME280;37474;59.468;18.040;2023-08-07T11:21:38;99363.50;;;24.22;88.89
50380;BME280;37474;59.468;18.040;2023-08-07T11:24:06;99366.38;;;24.34;89.08
50380;BME280;37474;59.468;18.040;2023-08-07T11:26:35;99355.63;;;24.75;86.98
50380;BME280;37474;59.468;18.040;2023-08-07T11:29:03;99359.53;;;24.60;87.48
50380;BME280;37474;59.468;18.040;2023-08-07T11:31:34;99359.91;;;24.70;88.24
50380;BME280;37474;59.468;18.040;2023-08-07T11:34:02;99339.56;;;25.10;85.08
50380;BME280;37474;59.468;18.040;2023-08-07T11:36:31;99344.22;;;25.15;85.03
50380;BME280;37474;59.468;18.040;2023-08-07T11:39:00;99338.28;;;24.93;84.29
50380;BME280;37474;59.468;18.040;2023-08-07T11:41:31;99339.13;;;25.13;86.00
50380;BME280;37474;59.468;18.040;2023-08-07T11:44:00;99326.91;;;24.79;85.45
50380;BME280;37474;59.468;18.040;2023-08-07T11:46:28;99331.81;;;24.56;88.41
50380;BME280;37474;59.468;18.040;2023-08-07T11:48:58;99335.88;;;24.71;88.18
50380;BME280;37474;59.468;18.040;2023-08-07T11:51:27;99339.13;;;25.07;87.28
50380;BME280;37474;59.468;18.040;2023-08-07T11:53:56;99338.31;;;24.99;85.42
50380;BME280;37474;59.468;18.040;2023-08-07T11:56:26;99338.72;;;24.83;85.53
50380;BME280;37474;59.468;18.040;2023-08-07T11:58:54;99331.78;;;24.95;87.01
50380;BME280;37474;59.468;18.040;2023-08-07T12:01:26;99339.94;;;25.00;85.82
50380;BME280;37474;59.468;18.040;2023-08-07T12:03:58;99336.66;;;24.98;84.64
50380;BME280;37474;59.468;18.040;2023-08-07T12:06:37;99333.81;;;25.00;85.28
50380;BME280;37474;59.468;18.040;2023-08-07T12:09:07;99327.69;;;24.99;84.96
50380;BME280;37474;59.468;18.040;2023-08-07T12:11:40;99304.47;;;24.88;87.61
50380;BME280;37474;59.468;18.040;2023-08-07T12:14:13;99291.41;;;24.93;84.95
50380;BME280;37474;59.468;18.040;2023-08-07T12:16:44;99266.31;;;25.09;85.94
50380;BME280;37474;59.468;18.040;2023-08-07T12:19:13;99288.69;;;25.33;86.02
50380;BME280;37474;59.468;18.040;2023-08-07T12:21:45;99282.31;;;25.41;81.88
50380;BME280;37474;59.468;18.040;2023-08-07T12:24:13;99264.75;;;25.46;82.63
50380;BME280;37474;59.468;18.040;2023-08-07T12:26:43;99274.38;;;25.34;85.96
50380;BME280;37474;59.468;18.040;2023-08-07T12:29:11;99288.13;;;24.98;85.11
50380;BME280;37474;59.468;18.040;2023-08-07T12:31:40;99302.03;;;24.80;85.47
50380;BME280;37474;59.468;18.040;2023-08-07T12:34:08;99318.56;;;24.82;86.33
50380;BME280;37474;59.468;18.040;2023-08-07T12:36:40;99337.50;;;24.53;87.47
50380;BME280;37474;59.468;18.040;2023-08-07T12:39:10;99329.97;;;24.49;87.74
50380;BME280;37474;59.468;18.040;2023-08-07T12:41:38;99320.78;;;24.72;87.26
50380;BME280;37474;59.468;18.040;2023-08-07T12:44:27;99308.34;;;24.59;86.79
50380;BME280;37474;59.468;18.040;2023-08-07T12:46:56;99317.91;;;24.80;87.01
50380;BME280;37474;59.468;18.040;2023-08-07T12:49:25;99309.59;;;24.77;86.05
50380;BME280;37474;59.468;18.040;2023-08-07T12:51:53;99294.28;;;24.72;86.56
50380;BME280;37474;59.468;18.040;2023-08-07T12:54:25;99304.00;;;25.24;84.65
50380;BME280;37474;59.468;18.040;2023-08-07T12:56:53;99311.84;;;25.58;81.54
50380;BME280;37474;59.468;18.040;2023-08-07T12:59:23;99297.69;;;25.19;81.49
50380;BME280;37474;59.468;18.040;2023-08-07T13:01:51;99323.25;;;24.60;84.42
50380;BME280;37474;59.468;18.040;2023-08-07T13:04:21;99338.91;;;24.48;86.24
50380;BME280;37474;59.468;18.040;2023-08-07T13:06:50;99330.56;;;24.65;84.22
50380;BME280;37474;59.468;18.040;2023-08-07T13:09:19;99347.09;;;24.67;84.95
50380;BME280;37474;59.468;18.040;2023-08-07T13:11:49;99357.28;;;24.43;84.17
50380;BME280;37474;59.468;18.040;2023-08-07T13:14:17;99377.78;;;24.28;84.81
50380;BME280;37474;59.468;18.040;2023-08-07T13:16:45;99398.66;;;23.96;85.92
50380;BME280;37474;59.468;18.040;2023-08-07T13:19:14;99412.00;;;23.75;87.90
50380;BME280;37474;59.468;18.040;2023-08-07T13:21:43;99428.03;;;23.32;91.13
50380;BME280;37474;59.468;18.040;2023-08-07T13:24:12;99429.97;;;23.24;92.40
50380;BME280;37474;59.468;18.040;2023-08-07T13:26:44;99417.91;;;23.14;93.37
50380;BME280;37474;59.468;18.040;2023-08-07T13:29:14;99416.50;;;23.47;91.17
50380;BME280;37474;59.468;18.040;2023-08-07T13:31:43;99412.47;;;23.51;92.06
50380;BME280;37474;59.468;18.040;2023-08-07T13:34:13;99400.38;;;23.69;91.22
50380;BME280;37474;59.468;18.040;2023-08-07T13:36:42;99402.47;;;23.46;91.01
50380;BME280;37474;59.468;18.040;2023-08-07T13:39:10;99387.63;;;23.52;90.02
50380;BME280;37474;59.468;18.040;2023-08-07T13:41:40;99375.00;;;23.47;88.62
50380;BME280;37474;59.468;18.040;2023-08-07T13:44:09;99346.47;;;23.42;90.46
50380;BME280;37474;59.468;18.040;2023-08-07T13:46:43;99327.88;;;23.64;89.08
50380;BME280;37474;59.468;18.040;2023-08-07T13:49:12;99344.88;;;23.83;87.21
50380;BME280;37474;59.468;18.040;2023-08-07T13:51:40;99348.13;;;23.78;86.37
50380;BME280;37474;59.468;18.040;2023-08-07T13:54:10;99336.25;;;23.67;87.44
50380;BME280;37474;59.468;18.040;2023-08-07T13:56:38;99345.50;;;23.43;88.50
50380;BME280;37474;59.468;18.040;2023-08-07T13:59:07;99332.59;;;23.27;89.95
50380;BME280;37474;59.468;18.040;2023-08-07T14:01:36;99325.13;;;23.09;91.84
50380;BME280;37474;59.468;18.040;2023-08-07T14:04:06;99301.88;;;22.98;92.42
50380;BME280;37474;59.468;18.040;2023-08-07T14:06:34;99290.03;;;22.87;93.51
50380;BME280;37474;59.468;18.040;2023-08-07T14:09:03;99271.75;;;22.92;94.01
50380;BME280;37474;59.468;18.040;2023-08-07T14:11:31;99234.16;;;22.90;94.85
50380;BME280;37474;59.468;18.040;2023-08-07T14:14:00;99213.38;;;22.87;95.06
50380;BME280;37474;59.468;18.040;2023-08-07T14:16:28;99217.31;;;22.98;94.68
50380;BME280;37474;59.468;18.040;2023-08-07T14:18:58;99242.38;;;23.09;95.11
50380;BME280;37474;59.468;18.040;2023-08-07T14:21:28;99267.81;;;23.10;93.72
50380;BME280;37474;59.468;18.040;2023-08-07T14:23:56;99235.31;;;23.16;94.47
50380;BME280;37474;59.468;18.040;2023-08-07T14:26:25;99240.50;;;23.03;94.26
50380;BME280;37474;59.468;18.040;2023-08-07T14:28:53;99264.94;;;23.05;95.00
50380;BME280;37474;59.468;18.040;2023-08-07T14:31:22;99256.06;;;23.19;95.25
50380;BME280;37474;59.468;18.040;2023-08-07T14:33:51;99256.16;;;23.39;93.97
50380;BME280;37474;59.468;18.040;2023-08-07T14:36:21;99268.59;;;23.52;93.39
50380;BME280;37474;59.468;18.040;2023-08-07T14:38:51;99253.75;;;23.57;92.82
50380;BME280;37474;59.468;18.040;2023-08-07T14:41:34;99251.31;;;23.56;93.47
50380;BME280;37474;59.468;18.040;2023-08-07T14:44:03;99255.25;;;23.18;94.68
50380;BME280;37474;59.468;18.040;2023-08-07T14:51:38;99271.66;;;22.79;96.95
50380;BME280;37474;59.468;18.040;2023-08-07T14:54:08;99281.13;;;22.39;99.99
50380;BME280;37474;59.468;18.040;2023-08-07T14:56:37;99295.25;;;22.31;100.00
50380;BME280;37474;59.468;18.040;2023-08-07T14:59:06;99288.84;;;22.19;100.00
50380;BME280;37474;59.468;18.040;2023-08-07T15:01:34;99275.28;;;22.22;100.00
50380;BME280;37474;59.468;18.040;2023-08-07T15:04:03;99285.50;;;22.32;100.00
50380;BME280;37474;59.468;18.040;2023-08-07T15:06:32;99284.84;;;22.23;100.00
50380;BME280;37474;59.468;18.040;2023-08-07T15:09:00;99278.66;;;22.37;100.00
50380;BME280;37474;59.468;18.040;2023-08-07T15:11:30;99260.56;;;22.34;100.00
50380;BME280;37474;59.468;18.040;2023-08-07T15:13:59;99255.31;;;22.41;100.00
50380;BME280;37474;59.468;18.040;2023-08-07T15:16:27;99250.03;;;22.41;100.00
50380;BME280;37474;59.468;18.040;2023-08-07T15:18:56;99263.59;;;22.59;100.00
50380;BME280;37474;59.468;18.040;2023-08-07T15:21:24;99264.22;;;22.61;99.20
50380;BME280;37474;59.468;18.040;2023-08-07T15:23:53;99261.72;;;22.53;99.98
50380;BME280;37474;59.468;18.040;2023-08-07T15:26:21;99265.31;;;22.46;98.33
50380;BME280;37474;59.468;18.040;2023-08-07T15:28:51;99284.06;;;22.29;99.88
50380;BME280;37474;59.468;18.040;2023-08-07T15:31:20;99291.22;;;22.35;100.00
50380;BME280;37474;59.468;18.040;2023-08-07T15:33:48;99295.66;;;22.28;100.00
50380;BME280;37474;59.468;18.040;2023-08-07T15:36:19;99298.38;;;22.42;100.00
50380;BME280;37474;59.468;18.040;2023-08-07T15:38:48;99313.88;;;22.45;100.00
50380;BME280;37474;59.468;18.040;2023-08-07T15:41:16;99313.97;;;22.58;99.94
50380;BME280;37474;59.468;18.040;2023-08-07T15:43:45;99328.03;;;22.65;99.58
50380;BME280;37474;59.468;18.040;2023-08-07T15:46:17;99316.72;;;22.71;98.17
50380;BME280;37474;59.468;18.040;2023-08-07T15:48:46;99317.03;;;22.83;97.61
50380;BME280;37474;59.468;18.040;2023-08-07T15:51:14;99327.16;;;22.79;97.75
50380;BME280;37474;59.468;18.040;2023-08-07T15:53:43;99329.53;;;22.96;96.71
50380;BME280;37474;59.468;18.040;2023-08-07T15:56:11;99331.31;;;22.88;97.34
50380;BME280;37474;59.468;18.040;2023-08-07T15:58:40;99337.53;;;22.59;97.17
50380;BME280;37474;59.468;18.040;2023-08-07T16:01:08;99348.25;;;22.30;99.78
50380;BME280;37474;59.468;18.040;2023-08-07T16:03:39;99357.31;;;22.06;100.00
50380;BME280;37474;59.468;18.040;2023-08-07T16:06:08;99344.59;;;21.95;100.00
50380;BME280;37474;59.468;18.040;2023-08-07T16:08:36;99349.22;;;21.93;100.00
50380;BME280;37474;59.468;18.040;2023-08-07T16:11:05;99354.50;;;21.93;100.00
50380;BME280;37474;59.468;18.040;2023-08-07T16:13:34;99353.34;;;21.80;99.25
50380;BME280;37474;59.468;18.040;2023-08-07T16:16:02;99347.13;;;21.67;100.00
50380;BME280;37474;59.468;18.040;2023-08-07T16:18:31;99339.03;;;21.53;100.00
50380;BME280;37474;59.468;18.040;2023-08-07T16:21:01;99348.88;;;21.45;100.00
50380;BME280;37474;59.468;18.040;2023-08-07T16:23:29;99353.69;;;21.56;100.00
50380;BME280;37474;59.468;18.040;2023-08-07T16:25:58;99366.50;;;21.29;100.00
50380;BME280;37474;59.468;18.040;2023-08-07T16:28:26;99356.84;;;21.22;100.00
50380;BME280;37474;59.468;18.040;2023-08-07T16:30:55;99337.72;;;21.05;100.00
50380;BME280;37474;59.468;18.040;2023-08-07T16:33:24;99323.81;;;20.96;100.00
50380;BME280;37474;59.468;18.040;2023-08-07T16:35:53;99317.47;;;21.20;100.00
50380;BME280;37474;59.468;18.040;2023-08-07T16:38:23;99318.84;;;21.31;100.00
50380;BME280;37474;59.468;18.040;2023-08-07T16:40:52;99315.47;;;21.22;100.00
50380;BME280;37474;59.468;18.040;2023-08-07T16:43:20;99313.13;;;21.27;100.00
50380;BME280;37474;59.468;18.040;2023-08-07T16:45:48;99331.28;;;21.22;100.00
50380;BME280;37474;59.468;18.040;2023-08-07T16:48:17;99345.28;;;21.23;100.00
50380;BME280;37474;59.468;18.040;2023-08-07T16:50:46;99348.72;;;21.08;100.00
50380;BME280;37474;59.468;18.040;2023-08-07T16:53:36;99343.59;;;20.77;100.00
50380;BME280;37474;59.468;18.040;2023-08-07T16:56:05;99338.97;;;20.79;100.00
50380;BME280;37474;59.468;18.040;2023-08-07T16:58:33;99336.13;;;20.81;100.00
50380;BME280;37474;59.468;18.040;2023-08-07T17:01:02;99332.09;;;20.70;100.00
50380;BME280;37474;59.468;18.040;2023-08-07T17:03:31;99336.84;;;20.60;100.00
50380;BME280;37474;59.468;18.040;2023-08-07T17:05:59;99333.81;;;20.63;100.00
50380;BME280;37474;59.468;18.040;2023-08-07T17:08:28;99333.91;;;20.55;100.00
50380;BME280;37474;59.468;18.040;2023-08-07T17:10:58;99318.44;;;20.52;100.00
50380;BME280;37474;59.468;18.040;2023-08-07T17:13:26;99317.03;;;20.41;100.00
50380;BME280;37474;59.468;18.040;2023-08-07T17:15:56;99322.44;;;20.48;100.00
50380;BME280;37474;59.468;18.040;2023-08-07T17:18:25;99334.25;;;20.52;100.00
50380;BME280;37474;59.468;18.040;2023-08-07T17:20:53;99334.34;;;20.36;100.00
50380;BME280;37474;59.468;18.040;2023-08-07T17:23:23;99328.03;;;20.22;100.00
50380;BME280;37474;59.468;18.040;2023-08-07T17:25:52;99322.19;;;20.35;100.00
50380;BME280;37474;59.468;18.040;2023-08-07T17:28:22;99305.47;;;20.27;100.00
50380;BME280;37474;59.468;18.040;2023-08-07T17:30:50;99289.97;;;20.33;100.00
50380;BME280;37474;59.468;18.040;2023-08-07T17:33:19;99268.63;;;20.27;100.00
50380;BME280;37474;59.468;18.040;2023-08-07T17:35:48;99265.63;;;20.30;100.00
50380;BME280;37474;59.468;18.040;2023-08-07T17:38:16;99239.53;;;20.44;100.00
50380;BME280;37474;59.468;18.040;2023-08-07T17:40:45;99214.16;;;20.51;98.73
50380;BME280;37474;59.468;18.040;2023-08-07T17:43:15;99213.44;;;20.57;98.56
50380;BME280;37474;59.468;18.040;2023-08-07T17:45:45;99210.28;;;20.39;98.45
50380;BME280;37474;59.468;18.040;2023-08-07T17:48:13;99225.72;;;20.42;98.31
50380;BME280;37474;59.468;18.040;2023-08-07T17:50:42;99230.63;;;20.45;97.86
50380;BME280;37474;59.468;18.040;2023-08-07T17:53:12;99226.50;;;20.27;99.09
50380;BME280;37474;59.468;18.040;2023-08-07T17:55:41;99236.91;;;20.21;100.00
50380;BME280;37474;59.468;18.040;2023-08-07T17:58:10;99237.88;;;20.05;100.00
50380;BME280;37474;59.468;18.040;2023-08-07T18:00:38;99239.16;;;19.86;100.00
50380;BME280;37474;59.468;18.040;2023-08-07T18:03:09;99230.38;;;19.71;100.00
50380;BME280;37474;59.468;18.040;2023-08-07T18:05:38;99244.00;;;19.74;100.00
50380;BME280;37474;59.468;18.040;2023-08-07T18:08:07;99238.72;;;19.74;100.00
50380;BME280;37474;59.468;18.040;2023-08-07T18:10:35;99231.84;;;19.73;100.00
50380;BME280;37474;59.468;18.040;2023-08-07T18:13:04;99221.31;;;19.73;100.00
50380;BME280;37474;59.468;18.040;2023-08-07T18:15:33;99215.66;;;19.62;100.00
50380;BME280;37474;59.468;18.040;2023-08-07T18:18:01;99205.72;;;19.41;100.00
50380;BME280;37474;59.468;18.040;2023-08-07T18:20:32;99194.91;;;19.36;100.00
50380;BME280;37474;59.468;18.040;2023-08-07T18:23:01;99183.06;;;19.40;100.00
50380;BME280;37474;59.468;18.040;2023-08-07T18:25:29;99170.50;;;19.27;100.00
50380;BME280;37474;59.468;18.040;2023-08-07T18:27:58;99152.25;;;18.94;100.00
50380;BME280;37474;59.468;18.040;2023-08-07T18:30:26;99143.97;;;18.75;100.00
50380;BME280;37474;59.468;18.040;2023-08-07T18:32:55;99154.16;;;18.53;100.00
50380;BME280;37474;59.468;18.040;2023-08-07T18:35:23;99161.56;;;18.50;100.00
50380;BME280;37474;59.468;18.040;2023-08-07T18:37:53;99147.09;;;18.62;100.00
50380;BME280;37474;59.468;18.040;2023-08-07T18:40:22;99153.53;;;18.43;100.00
50380;BME280;37474;59.468;18.040;2023-08-07T18:42:50;99143.38;;;18.32;100.00
50380;BME280;37474;59.468;18.040;2023-08-07T18:45:19;99159.13;;;18.32;100.00
50380;BME280;37474;59.468;18.040;2023-08-07T18:47:48;99150.63;;;18.38;100.00
50380;BME280;37474;59.468;18.040;2023-08-07T18:50:18;99163.56;;;18.39;100.00
50380;BME280;37474;59.468;18.040;2023-08-07T18:52:46;99174.22;;;18.30;100.00
50380;BME280;37474;59.468;18.040;2023-08-07T18:55:16;99169.63;;;18.32;100.00
50380;BME280;37474;59.468;18.040;2023-08-07T18:57:44;99170.13;;;18.19;100.00
50380;BME280;37474;59.468;18.040;2023-08-07T19:00:13;99174.41;;;18.20;100.00
50380;BME280;37474;59.468;18.040;2023-08-07T19:02:42;99159.34;;;18.06;100.00
50380;BME280;37474;59.468;18.040;2023-08-07T19:05:10;99140.50;;;17.78;100.00
50380;BME280;37474;59.468;18.040;2023-08-07T19:07:39;99143.44;;;17.75;100.00
50380;BME280;37474;59.468;18.040;2023-08-07T19:10:09;99141.75;;;17.65;100.00
50380;BME280;37474;59.468;18.040;2023-08-07T19:12:39;99147.19;;;17.56;100.00
50380;BME280;37474;59.468;18.040;2023-08-07T19:15:08;99160.94;;;17.66;100.00
50380;BME280;37474;59.468;18.040;2023-08-07T19:17:39;99180.13;;;17.75;100.00
50380;BME280;37474;59.468;18.040;2023-08-07T19:20:10;99189.97;;;17.81;100.00
50380;BME280;37474;59.468;18.040;2023-08-07T19:22:39;99207.19;;;17.83;100.00
50380;BME280;37474;59.468;18.040;2023-08-07T19:25:08;99200.22;;;17.58;100.00
50380;BME280;37474;59.468;18.040;2023-08-07T19:27:38;99182.84;;;17.49;100.00
50380;BME280;37474;59.468;18.040;2023-08-07T19:30:07;99179.22;;;17.41;100.00
50380;BME280;37474;59.468;18.040;2023-08-07T19:32:36;99168.59;;;17.35;100.00
50380;BME280;37474;59.468;18.040;2023-08-07T19:35:05;99154.97;;;17.23;100.00